Current Weather

Richmond

Richmond, Australia (YSRI)

Report from: Sunday, February 25, 2024 6:00 AM AEDT
Current time: Sunday, February 25, 2024 6:39 AM AEDT

Nearby weather – Weather history – Daily summaries
Weather forecast

Temperature17.0°C (62.6°F)
Dew point16.0°C (60.8°F)
Winds Calm
Visibility6.2 mi. (10 km)
Clouds Ceiling: Broken clouds 4,700 ft. (1,433 m)
Altimeter30.06 in.Hg (1018 mB)
Relative humidity94 %
Density altitude325 ft. (99 m)
Remarks Fully automated report
Flight conditions Visual Meteorological Conditions
Raw dataYSRI 241900Z AUTO 00000KT 9999 // BKN047 17/16 Q1018 RF00.0/001.8
An error has occurred. This application may no longer respond until reloaded. Reload 🗙